Nezperce, ID (83543)

12:07 AM PST on December 28, 2014 (GMT -0800)
Highland Schools | Change Station
CLOSE
Current Station
Personal Weather Station
Location: Craigmont, ID
Elevation: 3783 ft
Nearby Weather Stations
Active Advisory: Winter Storm Warning Active Notice: Public Information Statement

Elev 3783 ft 46.24 °N, 116.47 °W | Updated 4 seconds ago

Overcast
Overcast
29.2 °F
Feels Like 21 °F
N
9.2
Wind Variable Wind from West
Gusts 9.2 mph

Today
High -- | Low -- °F
--% Chance of Precip.
Yesterday
High -- | Low -- °F
Precip. -- in
7:27 AM 4:06 PM
Waxing Crescent, 45% visible
Pressure 29.94 in
Visibility 3.0 miles
Clouds Scattered Clouds 1200 ft
Mostly Cloudy 4000 ft
Overcast 4600 ft
Windchill 21 °F
Dew Point 27 °F
Humidity 93%
Rainfall 0.00 in
Snow Depth Not available.
UV 0 out of 12
Pollen .10 out of 12
Air Quality Not available.
Flu Activity Not available.
METAR KGIC 280755Z AUTO 22023G32KT 3SM SCT012 BKN040 OVC046 00/M04 A2994 RMK AO1 T00011038

More Conditions Fewer Conditions

Pressure 29.94 in
Visibility 3.0 miles
Clouds Scattered Clouds 1200 ft
Mostly Cloudy 4000 ft
Overcast 4600 ft
Windchill 21 °F
Dew Point 27 °F
Humidity 93%
Rainfall 0.00 in
Snow Depth Not available.
UV 0 out of 12
Pollen .10 out of 12
Air Quality Not available.
Flu Activity Not available.
METAR KGIC 280755Z AUTO 22023G32KT 3SM SCT012 BKN040 OVC046 00/M04 A2994 RMK AO1 T00011038

More Conditions Fewer Conditions

10-Day Weather Forecast

Almanac

Astronomy

Dec. 28, 2014 Rise Set
Actual Time
Civil Twilight
Nautical Twilight
Astronomical Twilight
Moon
Length of Visible Light
Length of Day
Tomorrow will be .
, % of the Moon is Illuminated

Today's Extremes

State Highs State Lows

Community

WunderPhotos

Upload Photos

1,781,210 photos uploaded!

WunderBlogs® & News

Nearby

Air Quality

  Air Quality AQ Index Pollutant
Not available.

Snow Depth

Station Depth Elevation

Earthquake Activity

City Distance Mag. Time & Date
Minimum magnitude displayed is 2.5.

Coastal Water Temperatures

Place Temperature

Nearby Weather Stations